sensor_id;sensor_type;location;lat;lon;timestamp;P1;durP1;ratioP1;P2;durP2;ratioP2
16892;SDS011;8563;52.242;9.098;2024-01-27T00:01:42;17.53;;;2.63;;
16892;SDS011;8563;52.242;9.098;2024-01-27T00:04:15;17.97;;;3.57;;
16892;SDS011;8563;52.242;9.098;2024-01-27T00:06:47;17.60;;;3.70;;
16892;SDS011;8563;52.242;9.098;2024-01-27T00:09:20;13.37;;;3.93;;
16892;SDS011;8563;52.242;9.098;2024-01-27T00:11:52;13.97;;;2.93;;
16892;SDS011;8563;52.242;9.098;2024-01-27T00:14:24;16.40;;;3.53;;
16892;SDS011;8563;52.242;9.098;2024-01-27T00:16:56;21.20;;;3.43;;
16892;SDS011;8563;52.242;9.098;2024-01-27T00:19:30;12.17;;;2.77;;
16892;SDS011;8563;52.242;9.098;2024-01-27T00:22:02;24.67;;;3.50;;
16892;SDS011;8563;52.242;9.098;2024-01-27T00:24:35;16.80;;;3.43;;
16892;SDS011;8563;52.242;9.098;2024-01-27T00:27:07;15.20;;;3.07;;
16892;SDS011;8563;52.242;9.098;2024-01-27T00:29:39;11.63;;;2.67;;
16892;SDS011;8563;52.242;9.098;2024-01-27T00:32:11;14.93;;;2.93;;
16892;SDS011;8563;52.242;9.098;2024-01-27T00:34:45;13.77;;;2.57;;
16892;SDS011;8563;52.242;9.098;2024-01-27T00:37:17;19.30;;;3.70;;
16892;SDS011;8563;52.242;9.098;2024-01-27T00:39:50;11.37;;;2.70;;
16892;SDS011;8563;52.242;9.098;2024-01-27T00:42:22;10.30;;;2.70;;
16892;SDS011;8563;52.242;9.098;2024-01-27T00:44:55;12.70;;;3.00;;
16892;SDS011;8563;52.242;9.098;2024-01-27T00:47:27;21.10;;;3.50;;
16892;SDS011;8563;52.242;9.098;2024-01-27T00:50:00;16.10;;;3.53;;
16892;SDS011;8563;52.242;9.098;2024-01-27T00:52:33;18.30;;;3.37;;
16892;SDS011;8563;52.242;9.098;2024-01-27T00:55:05;11.43;;;2.70;;
16892;SDS011;8563;52.242;9.098;2024-01-27T00:57:38;16.13;;;3.53;;
16892;SDS011;8563;52.242;9.098;2024-01-27T01:00:11;15.00;;;3.53;;
16892;SDS011;8563;52.242;9.098;2024-01-27T01:02:43;19.07;;;3.40;;
16892;SDS011;8563;52.242;9.098;2024-01-27T01:05:17;14.57;;;3.33;;
16892;SDS011;8563;52.242;9.098;2024-01-27T01:07:49;18.37;;;2.93;;
16892;SDS011;8563;52.242;9.098;2024-01-27T01:10:21;18.60;;;3.47;;
16892;SDS011;8563;52.242;9.098;2024-01-27T01:12:54;21.17;;;4.80;;
16892;SDS011;8563;52.242;9.098;2024-01-27T01:15:26;20.40;;;3.30;;
16892;SDS011;8563;52.242;9.098;2024-01-27T01:17:58;20.07;;;3.63;;
16892;SDS011;8563;52.242;9.098;2024-01-27T01:20:32;20.20;;;3.90;;
16892;SDS011;8563;52.242;9.098;2024-01-27T01:23:04;15.40;;;3.33;;
16892;SDS011;8563;52.242;9.098;2024-01-27T01:25:36;16.17;;;3.77;;
16892;SDS011;8563;52.242;9.098;2024-01-27T01:28:08;19.77;;;3.30;;
16892;SDS011;8563;52.242;9.098;2024-01-27T01:30:41;18.80;;;3.20;;
16892;SDS011;8563;52.242;9.098;2024-01-27T01:33:13;18.97;;;3.70;;
16892;SDS011;8563;52.242;9.098;2024-01-27T01:35:46;19.07;;;4.37;;
16892;SDS011;8563;52.242;9.098;2024-01-27T01:38:19;14.70;;;3.27;;
16892;SDS011;8563;52.242;9.098;2024-01-27T01:40:51;19.27;;;3.77;;
16892;SDS011;8563;52.242;9.098;2024-01-27T01:43:23;12.40;;;3.17;;
16892;SDS011;8563;52.242;9.098;2024-01-27T01:45:55;14.73;;;3.60;;
16892;SDS011;8563;52.242;9.098;2024-01-27T01:48:27;14.10;;;2.80;;
16892;SDS011;8563;52.242;9.098;2024-01-27T01:51:01;16.13;;;3.30;;
16892;SDS011;8563;52.242;9.098;2024-01-27T01:53:34;11.37;;;3.20;;
16892;SDS011;8563;52.242;9.098;2024-01-27T01:56:07;13.27;;;2.80;;
16892;SDS011;8563;52.242;9.098;2024-01-27T01:58:40;17.73;;;3.37;;
16892;SDS011;8563;52.242;9.098;2024-01-27T02:01:12;20.10;;;3.27;;
16892;SDS011;8563;52.242;9.098;2024-01-27T02:03:51;18.97;;;3.40;;
16892;SDS011;8563;52.242;9.098;2024-01-27T02:06:25;13.93;;;2.70;;
16892;SDS011;8563;52.242;9.098;2024-01-27T02:08:57;14.07;;;3.07;;
16892;SDS011;8563;52.242;9.098;2024-01-27T02:11:29;11.43;;;2.93;;
16892;SDS011;8563;52.242;9.098;2024-01-27T02:14:02;14.27;;;2.80;;
16892;SDS011;8563;52.242;9.098;2024-01-27T02:16:34;18.90;;;3.83;;
16892;SDS011;8563;52.242;9.098;2024-01-27T02:19:07;14.93;;;3.20;;
16892;SDS011;8563;52.242;9.098;2024-01-27T02:21:40;14.77;;;2.90;;
16892;SDS011;8563;52.242;9.098;2024-01-27T02:24:14;15.60;;;3.47;;
16892;SDS011;8563;52.242;9.098;2024-01-27T02:26:46;17.80;;;3.50;;
16892;SDS011;8563;52.242;9.098;2024-01-27T02:29:18;15.23;;;3.40;;
16892;SDS011;8563;52.242;9.098;2024-01-27T02:31:51;16.53;;;3.50;;
16892;SDS011;8563;52.242;9.098;2024-01-27T02:34:23;17.63;;;3.87;;
16892;SDS011;8563;52.242;9.098;2024-01-27T02:36:55;14.30;;;3.40;;
16892;SDS011;8563;52.242;9.098;2024-01-27T02:39:28;15.23;;;3.20;;
16892;SDS011;8563;52.242;9.098;2024-01-27T02:42:01;14.27;;;3.50;;
16892;SDS011;8563;52.242;9.098;2024-01-27T02:44:33;20.63;;;4.17;;
16892;SDS011;8563;52.242;9.098;2024-01-27T02:47:05;14.03;;;3.87;;
16892;SDS011;8563;52.242;9.098;2024-01-27T02:49:37;17.23;;;3.47;;
16892;SDS011;8563;52.242;9.098;2024-01-27T02:52:09;15.70;;;3.30;;
16892;SDS011;8563;52.242;9.098;2024-01-27T02:54:45;12.53;;;2.70;;
16892;SDS011;8563;52.242;9.098;2024-01-27T02:57:18;20.10;;;3.77;;
16892;SDS011;8563;52.242;9.098;2024-01-27T02:59:50;18.43;;;3.40;;
16892;SDS011;8563;52.242;9.098;2024-01-27T03:02:22;14.20;;;3.03;;
16892;SDS011;8563;52.242;9.098;2024-01-27T03:04:54;16.37;;;3.07;;
16892;SDS011;8563;52.242;9.098;2024-01-27T03:07:27;19.80;;;4.03;;
16892;SDS011;8563;52.242;9.098;2024-01-27T03:10:00;15.57;;;3.10;;
16892;SDS011;8563;52.242;9.098;2024-01-27T03:12:32;16.60;;;3.13;;
16892;SDS011;8563;52.242;9.098;2024-01-27T03:15:05;15.63;;;3.03;;
16892;SDS011;8563;52.242;9.098;2024-01-27T03:17:38;15.67;;;3.43;;
16892;SDS011;8563;52.242;9.098;2024-01-27T03:20:11;15.50;;;3.23;;
16892;SDS011;8563;52.242;9.098;2024-01-27T03:22:43;17.33;;;3.17;;
16892;SDS011;8563;52.242;9.098;2024-01-27T03:25:17;12.10;;;3.33;;
16892;SDS011;8563;52.242;9.098;2024-01-27T03:27:49;13.17;;;3.23;;
16892;SDS011;8563;52.242;9.098;2024-01-27T03:30:21;12.63;;;3.33;;
16892;SDS011;8563;52.242;9.098;2024-01-27T03:32:53;17.60;;;3.37;;
16892;SDS011;8563;52.242;9.098;2024-01-27T03:35:26;14.63;;;2.90;;
16892;SDS011;8563;52.242;9.098;2024-01-27T03:37:58;13.10;;;3.07;;
16892;SDS011;8563;52.242;9.098;2024-01-27T03:40:32;18.77;;;3.67;;
16892;SDS011;8563;52.242;9.098;2024-01-27T03:43:04;9.43;;;2.63;;
16892;SDS011;8563;52.242;9.098;2024-01-27T03:45:36;13.77;;;3.03;;
16892;SDS011;8563;52.242;9.098;2024-01-27T03:48:08;13.47;;;3.23;;
16892;SDS011;8563;52.242;9.098;2024-01-27T03:50:40;15.13;;;3.10;;
16892;SDS011;8563;52.242;9.098;2024-01-27T03:53:12;16.40;;;3.70;;
16892;SDS011;8563;52.242;9.098;2024-01-27T03:55:46;14.40;;;3.00;;
16892;SDS011;8563;52.242;9.098;2024-01-27T03:58:18;19.47;;;3.90;;
16892;SDS011;8563;52.242;9.098;2024-01-27T04:00:50;19.27;;;4.10;;
16892;SDS011;8563;52.242;9.098;2024-01-27T04:03:23;13.93;;;3.63;;
16892;SDS011;8563;52.242;9.098;2024-01-27T04:05:55;18.00;;;3.20;;
16892;SDS011;8563;52.242;9.098;2024-01-27T04:08:28;14.83;;;3.53;;
16892;SDS011;8563;52.242;9.098;2024-01-27T04:11:02;17.07;;;3.90;;
16892;SDS011;8563;52.242;9.098;2024-01-27T04:13:34;20.43;;;4.00;;
16892;SDS011;8563;52.242;9.098;2024-01-27T04:16:07;13.43;;;3.60;;
16892;SDS011;8563;52.242;9.098;2024-01-27T04:18:39;15.23;;;3.93;;
16892;SDS011;8563;52.242;9.098;2024-01-27T04:21:11;21.97;;;4.17;;
16892;SDS011;8563;52.242;9.098;2024-01-27T04:23:44;14.10;;;3.60;;
16892;SDS011;8563;52.242;9.098;2024-01-27T04:26:17;21.07;;;4.50;;
16892;SDS011;8563;52.242;9.098;2024-01-27T04:28:50;16.83;;;3.97;;
16892;SDS011;8563;52.242;9.098;2024-01-27T04:31:22;14.23;;;4.27;;
16892;SDS011;8563;52.242;9.098;2024-01-27T04:33:54;11.93;;;3.00;;
16892;SDS011;8563;52.242;9.098;2024-01-27T04:36:26;14.27;;;3.47;;
16892;SDS011;8563;52.242;9.098;2024-01-27T04:39:00;17.77;;;3.77;;
16892;SDS011;8563;52.242;9.098;2024-01-27T04:41:34;14.63;;;4.03;;
16892;SDS011;8563;52.242;9.098;2024-01-27T04:44:06;12.37;;;3.50;;
16892;SDS011;8563;52.242;9.098;2024-01-27T04:46:38;15.37;;;3.60;;
16892;SDS011;8563;52.242;9.098;2024-01-27T04:49:10;17.10;;;3.37;;
16892;SDS011;8563;52.242;9.098;2024-01-27T04:51:42;20.33;;;4.33;;
16892;SDS011;8563;52.242;9.098;2024-01-27T04:54:15;13.57;;;3.57;;
16892;SDS011;8563;52.242;9.098;2024-01-27T04:56:49;13.70;;;3.97;;
16892;SDS011;8563;52.242;9.098;2024-01-27T04:59:21;13.53;;;3.73;;
16892;SDS011;8563;52.242;9.098;2024-01-27T05:01:55;16.77;;;3.70;;
16892;SDS011;8563;52.242;9.098;2024-01-27T05:04:27;17.33;;;4.10;;
16892;SDS011;8563;52.242;9.098;2024-01-27T05:06:59;17.87;;;4.13;;
16892;SDS011;8563;52.242;9.098;2024-01-27T05:09:33;16.30;;;4.17;;
16892;SDS011;8563;52.242;9.098;2024-01-27T05:12:07;14.37;;;4.10;;
16892;SDS011;8563;52.242;9.098;2024-01-27T05:14:42;16.10;;;4.13;;
16892;SDS011;8563;52.242;9.098;2024-01-27T05:17:15;15.43;;;4.13;;
16892;SDS011;8563;52.242;9.098;2024-01-27T05:19:49;17.00;;;5.10;;
16892;SDS011;8563;52.242;9.098;2024-01-27T05:22:21;17.23;;;4.90;;
16892;SDS011;8563;52.242;9.098;2024-01-27T05:24:54;15.97;;;4.27;;
16892;SDS011;8563;52.242;9.098;2024-01-27T05:27:27;18.33;;;4.70;;
16892;SDS011;8563;52.242;9.098;2024-01-27T05:29:59;15.87;;;4.27;;
16892;SDS011;8563;52.242;9.098;2024-01-27T05:32:32;18.50;;;4.50;;
16892;SDS011;8563;52.242;9.098;2024-01-27T05:35:05;22.13;;;5.00;;
16892;SDS011;8563;52.242;9.098;2024-01-27T05:37:38;23.13;;;4.93;;
16892;SDS011;8563;52.242;9.098;2024-01-27T05:40:10;16.97;;;4.17;;
16892;SDS011;8563;52.242;9.098;2024-01-27T05:42:44;14.97;;;4.37;;
16892;SDS011;8563;52.242;9.098;2024-01-27T05:45:17;17.23;;;4.87;;
16892;SDS011;8563;52.242;9.098;2024-01-27T05:47:49;14.40;;;4.67;;
16892;SDS011;8563;52.242;9.098;2024-01-27T05:50:21;11.73;;;4.27;;
16892;SDS011;8563;52.242;9.098;2024-01-27T05:52:53;14.60;;;4.43;;
16892;SDS011;8563;52.242;9.098;2024-01-27T05:55:26;18.00;;;4.57;;
16892;SDS011;8563;52.242;9.098;2024-01-27T05:57:59;13.60;;;4.17;;
16892;SDS011;8563;52.242;9.098;2024-01-27T06:00:31;17.70;;;4.63;;
16892;SDS011;8563;52.242;9.098;2024-01-27T06:03:04;15.87;;;5.10;;
16892;SDS011;8563;52.242;9.098;2024-01-27T06:05:36;16.20;;;4.70;;
16892;SDS011;8563;52.242;9.098;2024-01-27T06:08:09;16.03;;;4.67;;
16892;SDS011;8563;52.242;9.098;2024-01-27T06:10:41;18.30;;;4.60;;
16892;SDS011;8563;52.242;9.098;2024-01-27T06:13:14;14.33;;;4.70;;
16892;SDS011;8563;52.242;9.098;2024-01-27T06:15:47;18.73;;;4.30;;
16892;SDS011;8563;52.242;9.098;2024-01-27T06:18:19;15.60;;;5.07;;
16892;SDS011;8563;52.242;9.098;2024-01-27T06:20:51;13.87;;;4.30;;
16892;SDS011;8563;52.242;9.098;2024-01-27T06:23:23;15.93;;;4.63;;
16892;SDS011;8563;52.242;9.098;2024-01-27T06:25:56;15.17;;;5.03;;
16892;SDS011;8563;52.242;9.098;2024-01-27T06:28:29;12.37;;;4.50;;
16892;SDS011;8563;52.242;9.098;2024-01-27T06:31:02;18.07;;;4.67;;
16892;SDS011;8563;52.242;9.098;2024-01-27T06:33:34;13.23;;;4.23;;
16892;SDS011;8563;52.242;9.098;2024-01-27T06:36:07;14.13;;;4.20;;
16892;SDS011;8563;52.242;9.098;2024-01-27T06:38:39;17.57;;;4.63;;
16892;SDS011;8563;52.242;9.098;2024-01-27T06:41:12;19.40;;;4.87;;
16892;SDS011;8563;52.242;9.098;2024-01-27T06:43:46;17.70;;;4.60;;
16892;SDS011;8563;52.242;9.098;2024-01-27T06:46:18;19.60;;;4.67;;
16892;SDS011;8563;52.242;9.098;2024-01-27T06:48:50;19.00;;;4.70;;
16892;SDS011;8563;52.242;9.098;2024-01-27T06:51:22;18.07;;;5.07;;
16892;SDS011;8563;52.242;9.098;2024-01-27T06:53:54;14.73;;;4.60;;
16892;SDS011;8563;52.242;9.098;2024-01-27T06:56:26;17.60;;;4.63;;
16892;SDS011;8563;52.242;9.098;2024-01-27T06:59:00;16.10;;;5.23;;
16892;SDS011;8563;52.242;9.098;2024-01-27T07:01:32;19.73;;;5.17;;
16892;SDS011;8563;52.242;9.098;2024-01-27T07:04:04;19.17;;;5.90;;
16892;SDS011;8563;52.242;9.098;2024-01-27T07:06:36;13.97;;;5.70;;
16892;SDS011;8563;52.242;9.098;2024-01-27T07:09:09;12.57;;;5.03;;
16892;SDS011;8563;52.242;9.098;2024-01-27T07:11:41;19.20;;;5.87;;
16892;SDS011;8563;52.242;9.098;2024-01-27T07:14:15;15.93;;;6.00;;
16892;SDS011;8563;52.242;9.098;2024-01-27T07:16:47;15.67;;;5.13;;
16892;SDS011;8563;52.242;9.098;2024-01-27T07:19:20;16.53;;;5.97;;
16892;SDS011;8563;52.242;9.098;2024-01-27T07:21:52;18.23;;;6.10;;
16892;SDS011;8563;52.242;9.098;2024-01-27T07:24:24;15.90;;;5.67;;
16892;SDS011;8563;52.242;9.098;2024-01-27T07:26:56;14.23;;;5.23;;
16892;SDS011;8563;52.242;9.098;2024-01-27T07:29:30;17.70;;;5.70;;
16892;SDS011;8563;52.242;9.098;2024-01-27T07:32:03;13.20;;;5.70;;
16892;SDS011;8563;52.242;9.098;2024-01-27T07:34:38;15.20;;;5.60;;
16892;SDS011;8563;52.242;9.098;2024-01-27T07:37:11;19.77;;;5.60;;
16892;SDS011;8563;52.242;9.098;2024-01-27T07:39:43;19.87;;;5.90;;
16892;SDS011;8563;52.242;9.098;2024-01-27T07:42:15;14.83;;;5.50;;
16892;SDS011;8563;52.242;9.098;2024-01-27T07:44:49;16.97;;;5.70;;
16892;SDS011;8563;52.242;9.098;2024-01-27T07:47:21;14.77;;;6.27;;
16892;SDS011;8563;52.242;9.098;2024-01-27T07:49:53;19.77;;;6.23;;
16892;SDS011;8563;52.242;9.098;2024-01-27T07:52:25;16.47;;;6.07;;
16892;SDS011;8563;52.242;9.098;2024-01-27T07:54:58;19.57;;;7.03;;
16892;SDS011;8563;52.242;9.098;2024-01-27T07:57:30;16.13;;;6.47;;
16892;SDS011;8563;52.242;9.098;2024-01-27T08:00:04;16.30;;;6.43;;
16892;SDS011;8563;52.242;9.098;2024-01-27T08:02:37;15.83;;;6.37;;
16892;SDS011;8563;52.242;9.098;2024-01-27T08:05:09;18.10;;;7.53;;
16892;SDS011;8563;52.242;9.098;2024-01-27T08:07:42;25.20;;;6.70;;
16892;SDS011;8563;52.242;9.098;2024-01-27T08:10:14;14.97;;;6.13;;
16892;SDS011;8563;52.242;9.098;2024-01-27T08:12:47;14.67;;;6.70;;
16892;SDS011;8563;52.242;9.098;2024-01-27T08:15:21;15.47;;;6.10;;
16892;SDS011;8563;52.242;9.098;2024-01-27T08:17:53;18.17;;;6.87;;
16892;SDS011;8563;52.242;9.098;2024-01-27T08:20:25;21.73;;;6.60;;
16892;SDS011;8563;52.242;9.098;2024-01-27T08:22:57;18.87;;;6.83;;
16892;SDS011;8563;52.242;9.098;2024-01-27T08:25:29;14.13;;;6.77;;
16892;SDS011;8563;52.242;9.098;2024-01-27T08:28:02;19.10;;;7.07;;
16892;SDS011;8563;52.242;9.098;2024-01-27T08:30:36;20.50;;;7.17;;
16892;SDS011;8563;52.242;9.098;2024-01-27T08:33:09;16.37;;;6.90;;
16892;SDS011;8563;52.242;9.098;2024-01-27T08:35:41;18.43;;;6.53;;
16892;SDS011;8563;52.242;9.098;2024-01-27T08:38:13;16.53;;;6.57;;
16892;SDS011;8563;52.242;9.098;2024-01-27T08:40:46;22.20;;;6.80;;
16892;SDS011;8563;52.242;9.098;2024-01-27T08:43:18;16.60;;;5.83;;
16892;SDS011;8563;52.242;9.098;2024-01-27T08:45:51;18.00;;;6.50;;
16892;SDS011;8563;52.242;9.098;2024-01-27T08:48:25;20.03;;;6.27;;
16892;SDS011;8563;52.242;9.098;2024-01-27T08:50:57;17.87;;;6.70;;
16892;SDS011;8563;52.242;9.098;2024-01-27T08:53:29;13.10;;;6.13;;
16892;SDS011;8563;52.242;9.098;2024-01-27T08:56:01;15.23;;;6.57;;
16892;SDS011;8563;52.242;9.098;2024-01-27T08:58:34;15.03;;;6.53;;
16892;SDS011;8563;52.242;9.098;2024-01-27T09:01:07;16.07;;;7.20;;
16892;SDS011;8563;52.242;9.098;2024-01-27T09:03:40;14.47;;;6.27;;
16892;SDS011;8563;52.242;9.098;2024-01-27T09:06:12;18.70;;;6.40;;
16892;SDS011;8563;52.242;9.098;2024-01-27T09:08:45;14.83;;;6.07;;
16892;SDS011;8563;52.242;9.098;2024-01-27T09:11:17;19.33;;;6.90;;
16892;SDS011;8563;52.242;9.098;2024-01-27T09:13:49;13.73;;;6.40;;
16892;SDS011;8563;52.242;9.098;2024-01-27T09:16:23;18.00;;;6.33;;
16892;SDS011;8563;52.242;9.098;2024-01-27T09:18:55;10.80;;;5.73;;
16892;SDS011;8563;52.242;9.098;2024-01-27T09:21:28;17.45;;;7.28;;
16892;SDS011;8563;52.242;9.098;2024-01-27T09:24:00;16.00;;;6.63;;
16892;SDS011;8563;52.242;9.098;2024-01-27T09:26:33;16.83;;;6.27;;
16892;SDS011;8563;52.242;9.098;2024-01-27T09:29:06;13.47;;;5.73;;
16892;SDS011;8563;52.242;9.098;2024-01-27T09:31:41;16.50;;;6.53;;
16892;SDS011;8563;52.242;9.098;2024-01-27T09:34:13;17.47;;;6.07;;
16892;SDS011;8563;52.242;9.098;2024-01-27T09:36:45;15.47;;;6.03;;
16892;SDS011;8563;52.242;9.098;2024-01-27T09:39:17;14.13;;;5.70;;
16892;SDS011;8563;52.242;9.098;2024-01-27T09:41:49;14.63;;;5.97;;
16892;SDS011;8563;52.242;9.098;2024-01-27T09:44:22;14.33;;;5.87;;
16892;SDS011;8563;52.242;9.098;2024-01-27T09:46:59;15.97;;;6.50;;
16892;SDS011;8563;52.242;9.098;2024-01-27T09:49:31;17.93;;;6.10;;
16892;SDS011;8563;52.242;9.098;2024-01-27T09:52:05;19.20;;;7.00;;
16892;SDS011;8563;52.242;9.098;2024-01-27T09:54:39;14.83;;;5.73;;
16892;SDS011;8563;52.242;9.098;2024-01-27T09:57:12;22.77;;;7.03;;
16892;SDS011;8563;52.242;9.098;2024-01-27T09:59:44;17.93;;;6.23;;
16892;SDS011;8563;52.242;9.098;2024-01-27T10:02:19;14.67;;;6.00;;
16892;SDS011;8563;52.242;9.098;2024-01-27T10:04:53;21.00;;;6.30;;
16892;SDS011;8563;52.242;9.098;2024-01-27T10:07:26;12.87;;;5.33;;
16892;SDS011;8563;52.242;9.098;2024-01-27T10:09:58;14.13;;;5.33;;
16892;SDS011;8563;52.242;9.098;2024-01-27T10:12:31;14.97;;;6.03;;
16892;SDS011;8563;52.242;9.098;2024-01-27T10:15:04;13.93;;;6.03;;
16892;SDS011;8563;52.242;9.098;2024-01-27T10:17:38;19.30;;;6.47;;
16892;SDS011;8563;52.242;9.098;2024-01-27T10:20:11;15.03;;;5.80;;
16892;SDS011;8563;52.242;9.098;2024-01-27T10:22:45;18.37;;;6.27;;
16892;SDS011;8563;52.242;9.098;2024-01-27T10:25:18;20.93;;;6.63;;
16892;SDS011;8563;52.242;9.098;2024-01-27T10:27:55;14.67;;;5.47;;
16892;SDS011;8563;52.242;9.098;2024-01-27T10:30:27;16.13;;;5.63;;
16892;SDS011;8563;52.242;9.098;2024-01-27T10:33:01;19.17;;;6.07;;
16892;SDS011;8563;52.242;9.098;2024-01-27T10:35:34;14.77;;;5.60;;
16892;SDS011;8563;52.242;9.098;2024-01-27T10:38:06;13.20;;;5.43;;
16892;SDS011;8563;52.242;9.098;2024-01-27T10:40:38;19.33;;;6.00;;
16892;SDS011;8563;52.242;9.098;2024-01-27T10:43:10;15.97;;;5.50;;
16892;SDS011;8563;52.242;9.098;2024-01-27T10:45:43;11.80;;;6.00;;
16892;SDS011;8563;52.242;9.098;2024-01-27T10:48:17;14.77;;;5.83;;
16892;SDS011;8563;52.242;9.098;2024-01-27T10:50:49;15.07;;;5.87;;
16892;SDS011;8563;52.242;9.098;2024-01-27T10:53:23;15.77;;;6.17;;
16892;SDS011;8563;52.242;9.098;2024-01-27T10:55:57;14.60;;;4.80;;
16892;SDS011;8563;52.242;9.098;2024-01-27T10:58:30;12.93;;;5.67;;
16892;SDS011;8563;52.242;9.098;2024-01-27T11:01:02;18.03;;;5.77;;
16892;SDS011;8563;52.242;9.098;2024-01-27T11:03:37;17.97;;;5.63;;
16892;SDS011;8563;52.242;9.098;2024-01-27T11:06:10;14.20;;;5.80;;
16892;SDS011;8563;52.242;9.098;2024-01-27T11:08:46;14.20;;;5.73;;
16892;SDS011;8563;52.242;9.098;2024-01-27T11:11:20;13.40;;;5.70;;
16892;SDS011;8563;52.242;9.098;2024-01-27T11:13:52;16.27;;;6.13;;
16892;SDS011;8563;52.242;9.098;2024-01-27T11:16:25;18.50;;;5.53;;
16892;SDS011;8563;52.242;9.098;2024-01-27T11:19:00;13.83;;;5.47;;
16892;SDS011;8563;52.242;9.098;2024-01-27T11:21:32;15.43;;;5.73;;
16892;SDS011;8563;52.242;9.098;2024-01-27T11:24:12;13.60;;;5.10;;
16892;SDS011;8563;52.242;9.098;2024-01-27T11:26:45;13.47;;;4.90;;
16892;SDS011;8563;52.242;9.098;2024-01-27T11:29:18;14.70;;;5.57;;
16892;SDS011;8563;52.242;9.098;2024-01-27T11:31:50;16.67;;;5.00;;
16892;SDS011;8563;52.242;9.098;2024-01-27T11:34:24;12.03;;;5.00;;
16892;SDS011;8563;52.242;9.098;2024-01-27T11:36:56;16.07;;;5.23;;
16892;SDS011;8563;52.242;9.098;2024-01-27T11:39:33;13.53;;;4.57;;
16892;SDS011;8563;52.242;9.098;2024-01-27T11:42:08;12.47;;;4.43;;
16892;SDS011;8563;52.242;9.098;2024-01-27T11:44:42;10.20;;;4.73;;
16892;SDS011;8563;52.242;9.098;2024-01-27T11:47:16;13.37;;;5.30;;
16892;SDS011;8563;52.242;9.098;2024-01-27T11:49:54;14.37;;;5.07;;
16892;SDS011;8563;52.242;9.098;2024-01-27T11:52:27;15.90;;;5.23;;
16892;SDS011;8563;52.242;9.098;2024-01-27T11:55:00;15.07;;;4.80;;
16892;SDS011;8563;52.242;9.098;2024-01-27T11:57:33;12.10;;;4.50;;
16892;SDS011;8563;52.242;9.098;2024-01-27T12:00:06;14.97;;;4.80;;
16892;SDS011;8563;52.242;9.098;2024-01-27T12:02:39;11.43;;;4.57;;
16892;SDS011;8563;52.242;9.098;2024-01-27T12:05:14;12.30;;;4.67;;
16892;SDS011;8563;52.242;9.098;2024-01-27T12:07:46;13.33;;;4.47;;
16892;SDS011;8563;52.242;9.098;2024-01-27T12:10:18;12.87;;;3.97;;
16892;SDS011;8563;52.242;9.098;2024-01-27T12:12:51;12.83;;;4.67;;
16892;SDS011;8563;52.242;9.098;2024-01-27T12:15:23;12.57;;;4.30;;
16892;SDS011;8563;52.242;9.098;2024-01-27T12:17:56;12.43;;;4.73;;
16892;SDS011;8563;52.242;9.098;2024-01-27T12:20:30;13.70;;;4.23;;
16892;SDS011;8563;52.242;9.098;2024-01-27T12:23:02;13.40;;;4.23;;
16892;SDS011;8563;52.242;9.098;2024-01-27T12:25:35;12.67;;;4.73;;
16892;SDS011;8563;52.242;9.098;2024-01-27T12:28:07;12.27;;;4.07;;
16892;SDS011;8563;52.242;9.098;2024-01-27T12:30:41;15.30;;;4.53;;
16892;SDS011;8563;52.242;9.098;2024-01-27T12:33:14;16.50;;;4.73;;
16892;SDS011;8563;52.242;9.098;2024-01-27T12:35:51;10.30;;;3.50;;
16892;SDS011;8563;52.242;9.098;2024-01-27T12:38:24;11.73;;;4.33;;
16892;SDS011;8563;52.242;9.098;2024-01-27T12:40:57;11.97;;;4.37;;
16892;SDS011;8563;52.242;9.098;2024-01-27T12:43:29;15.83;;;3.77;;
16892;SDS011;8563;52.242;9.098;2024-01-27T12:46:01;12.43;;;4.53;;
16892;SDS011;8563;52.242;9.098;2024-01-27T12:48:33;11.90;;;3.93;;
16892;SDS011;8563;52.242;9.098;2024-01-27T12:51:07;10.43;;;4.00;;
16892;SDS011;8563;52.242;9.098;2024-01-27T12:53:39;8.07;;;3.20;;
16892;SDS011;8563;52.242;9.098;2024-01-27T12:56:15;13.13;;;3.63;;
16892;SDS011;8563;52.242;9.098;2024-01-27T12:58:48;10.00;;;3.40;;
16892;SDS011;8563;52.242;9.098;2024-01-27T13:01:20;9.33;;;3.60;;
16892;SDS011;8563;52.242;9.098;2024-01-27T13:03:53;9.80;;;3.30;;
16892;SDS011;8563;52.242;9.098;2024-01-27T13:06:26;11.83;;;3.53;;
16892;SDS011;8563;52.242;9.098;2024-01-27T13:08:58;12.40;;;3.40;;
16892;SDS011;8563;52.242;9.098;2024-01-27T13:11:31;9.40;;;3.40;;
16892;SDS011;8563;52.242;9.098;2024-01-27T13:14:03;11.47;;;3.13;;
16892;SDS011;8563;52.242;9.098;2024-01-27T13:16:35;16.03;;;3.63;;
16892;SDS011;8563;52.242;9.098;2024-01-27T13:19:08;13.13;;;3.53;;
16892;SDS011;8563;52.242;9.098;2024-01-27T13:21:41;12.40;;;2.93;;
16892;SDS011;8563;52.242;9.098;2024-01-27T13:24:13;7.50;;;2.93;;
16892;SDS011;8563;52.242;9.098;2024-01-27T13:26:46;19.00;;;3.87;;
16892;SDS011;8563;52.242;9.098;2024-01-27T13:29:19;13.17;;;3.23;;
16892;SDS011;8563;52.242;9.098;2024-01-27T13:31:53;13.00;;;3.43;;
16892;SDS011;8563;52.242;9.098;2024-01-27T13:34:25;9.70;;;3.10;;
16892;SDS011;8563;52.242;9.098;2024-01-27T13:36:59;12.37;;;3.20;;
16892;SDS011;8563;52.242;9.098;2024-01-27T13:39:33;11.77;;;3.40;;
16892;SDS011;8563;52.242;9.098;2024-01-27T13:42:05;9.80;;;2.93;;
16892;SDS011;8563;52.242;9.098;2024-01-27T13:44:38;11.50;;;3.33;;
16892;SDS011;8563;52.242;9.098;2024-01-27T13:47:10;9.60;;;2.93;;
16892;SDS011;8563;52.242;9.098;2024-01-27T13:49:42;8.90;;;3.63;;
16892;SDS011;8563;52.242;9.098;2024-01-27T13:52:16;14.67;;;3.33;;
16892;SDS011;8563;52.242;9.098;2024-01-27T13:54:48;13.70;;;3.50;;
16892;SDS011;8563;52.242;9.098;2024-01-27T13:57:20;11.40;;;3.20;;
16892;SDS011;8563;52.242;9.098;2024-01-27T13:59:53;9.00;;;2.87;;
16892;SDS011;8563;52.242;9.098;2024-01-27T14:02:25;12.33;;;2.90;;
16892;SDS011;8563;52.242;9.098;2024-01-27T14:04:58;11.17;;;3.13;;
16892;SDS011;8563;52.242;9.098;2024-01-27T14:07:31;10.70;;;3.27;;
16892;SDS011;8563;52.242;9.098;2024-01-27T14:10:04;11.13;;;2.87;;
16892;SDS011;8563;52.242;9.098;2024-01-27T14:12:36;11.03;;;3.17;;
16892;SDS011;8563;52.242;9.098;2024-01-27T14:15:09;8.00;;;2.90;;
16892;SDS011;8563;52.242;9.098;2024-01-27T14:17:42;8.10;;;2.93;;
16892;SDS011;8563;52.242;9.098;2024-01-27T14:20:14;11.70;;;3.20;;
16892;SDS011;8563;52.242;9.098;2024-01-27T14:22:48;10.40;;;2.97;;
16892;SDS011;8563;52.242;9.098;2024-01-27T14:25:20;10.93;;;3.10;;
16892;SDS011;8563;52.242;9.098;2024-01-27T14:27:52;13.60;;;3.30;;
16892;SDS011;8563;52.242;9.098;2024-01-27T14:30:25;10.33;;;2.80;;
16892;SDS011;8563;52.242;9.098;2024-01-27T14:32:57;12.33;;;3.43;;
16892;SDS011;8563;52.242;9.098;2024-01-27T14:35:30;10.27;;;3.03;;
16892;SDS011;8563;52.242;9.098;2024-01-27T14:38:04;10.37;;;3.30;;
16892;SDS011;8563;52.242;9.098;2024-01-27T14:40:39;15.23;;;3.60;;
16892;SDS011;8563;52.242;9.098;2024-01-27T14:43:11;10.73;;;3.20;;
16892;SDS011;8563;52.242;9.098;2024-01-27T14:45:44;12.93;;;3.33;;
16892;SDS011;8563;52.242;9.098;2024-01-27T14:48:17;9.70;;;2.90;;
16892;SDS011;8563;52.242;9.098;2024-01-27T14:50:50;11.03;;;2.90;;
16892;SDS011;8563;52.242;9.098;2024-01-27T14:53:29;12.57;;;3.30;;
16892;SDS011;8563;52.242;9.098;2024-01-27T14:56:01;13.33;;;3.43;;
16892;SDS011;8563;52.242;9.098;2024-01-27T14:58:34;11.13;;;3.47;;
16892;SDS011;8563;52.242;9.098;2024-01-27T15:01:06;9.47;;;3.23;;
16892;SDS011;8563;52.242;9.098;2024-01-27T15:03:38;13.23;;;3.37;;
16892;SDS011;8563;52.242;9.098;2024-01-27T15:06:13;10.40;;;3.60;;
16892;SDS011;8563;52.242;9.098;2024-01-27T15:08:46;12.33;;;3.27;;
16892;SDS011;8563;52.242;9.098;2024-01-27T15:11:19;10.53;;;3.57;;
16892;SDS011;8563;52.242;9.098;2024-01-27T15:13:52;14.67;;;3.67;;
16892;SDS011;8563;52.242;9.098;2024-01-27T15:16:26;10.30;;;3.63;;
16892;SDS011;8563;52.242;9.098;2024-01-27T15:18:59;13.40;;;3.60;;
16892;SDS011;8563;52.242;9.098;2024-01-27T15:21:31;11.97;;;3.33;;